Terminal Aerodrome Forecast
Issued by NWS

Home | Current Version | Previous Version | Text Only | Print | Product List | Glossary On
Versions: 1 2 3 4 5 6 7 8 9 10 11 12 13 14 15 16
254
FTUS43 KEAX 260520
TAFSTJ
TAF
KSTJ 260520Z 2606/2706 VRB05KT P6SM BKN120
     FM260800 13006KT P6SM VCSH BKN060
     FM261000 10005KT P6SM BKN090
     FM261700 35007KT P6SM SCT045
     FM270200 04004KT P6SM FEW200=

USA.gov is the U.S. government's official web portal to all federal, state and local government web resources and services.